createdAt,value
2018-05-04T00:00:26.741Z,0.00
2018-05-04T00:01:26.720Z,0.00
2018-05-04T00:02:26.700Z,0.00
2018-05-04T00:03:26.682Z,0.00
2018-05-04T00:04:26.663Z,0.00
2018-05-04T00:05:26.646Z,0.00
2018-05-04T00:06:26.629Z,0.00
2018-05-04T00:07:26.609Z,0.00
2018-05-04T00:08:26.599Z,0.00
2018-05-04T00:09:26.575Z,0.00
2018-05-04T00:10:26.557Z,0.00
2018-05-04T00:11:26.537Z,0.00
2018-05-04T00:12:26.519Z,0.00
2018-05-04T00:13:26.502Z,0.00
2018-05-04T00:14:26.481Z,0.00
2018-05-04T00:15:26.469Z,0.00
2018-05-04T00:16:26.450Z,0.00
2018-05-04T00:17:26.429Z,0.00
2018-05-04T00:18:26.412Z,0.00
2018-05-04T00:19:26.388Z,0.00
2018-05-04T00:20:26.378Z,0.00
2018-05-04T00:21:26.355Z,0.00
2018-05-04T00:22:26.338Z,0.00
2018-05-04T00:23:26.319Z,0.00
2018-05-04T00:24:26.299Z,0.00
2018-05-04T00:25:26.283Z,0.00
2018-05-04T00:26:26.260Z,0.00
2018-05-04T00:27:26.244Z,0.00
2018-05-04T00:28:26.228Z,0.00
2018-05-04T00:29:26.208Z,0.00
2018-05-04T00:30:26.191Z,0.00
2018-05-04T00:31:26.173Z,0.00
2018-05-04T00:32:26.160Z,0.00
2018-05-04T00:33:26.138Z,0.00
2018-05-04T00:34:26.118Z,0.00
2018-05-04T00:35:26.101Z,0.00
2018-05-04T00:36:26.086Z,0.00
2018-05-04T00:37:26.065Z,0.00
2018-05-04T00:38:26.049Z,0.00
2018-05-04T00:39:26.032Z,0.00
2018-05-04T00:40:26.011Z,0.00
2018-05-04T00:41:25.991Z,0.00
2018-05-04T00:42:25.979Z,0.00
2018-05-04T00:43:25.962Z,0.00
2018-05-04T00:44:25.937Z,0.00
2018-05-04T00:45:25.924Z,0.00
2018-05-04T00:46:25.897Z,0.00
2018-05-04T00:47:25.882Z,0.00
2018-05-04T00:48:25.864Z,0.00
2018-05-04T00:49:25.851Z,0.00
2018-05-04T00:50:25.825Z,0.00
2018-05-04T00:51:25.809Z,0.00
2018-05-04T00:52:25.788Z,0.00
2018-05-04T00:53:25.778Z,0.00
2018-05-04T00:54:25.760Z,0.00
2018-05-04T00:55:25.739Z,0.00
2018-05-04T00:56:25.718Z,0.00
2018-05-04T00:57:25.703Z,0.00
2018-05-04T00:58:25.678Z,0.00
2018-05-04T00:59:25.664Z,0.00
2018-05-04T01:00:25.643Z,0.00
2018-05-04T01:01:25.629Z,0.00
2018-05-04T01:02:25.607Z,0.00
2018-05-04T01:03:25.588Z,0.00
2018-05-04T01:04:25.579Z,0.00
2018-05-04T01:05:25.553Z,0.00
2018-05-04T01:06:25.533Z,0.00
2018-05-04T01:07:25.518Z,0.00
2018-05-04T01:08:25.497Z,0.00
2018-05-04T01:09:25.512Z,0.00
2018-05-04T01:10:25.460Z,0.00
2018-05-04T01:11:25.478Z,0.00
2018-05-04T01:12:25.440Z,0.00
2018-05-04T01:13:25.406Z,0.00
2018-05-04T01:14:25.398Z,0.00
2018-05-04T01:15:25.368Z,0.00
2018-05-04T01:16:25.350Z,0.00
2018-05-04T01:17:25.336Z,0.00
2018-05-04T01:18:25.319Z,0.00
2018-05-04T01:19:25.297Z,0.00
2018-05-04T01:20:25.277Z,0.00
2018-05-04T01:21:25.265Z,0.00
2018-05-04T01:22:25.241Z,0.00
2018-05-04T01:23:25.229Z,0.00
2018-05-04T01:24:25.208Z,0.00
2018-05-04T01:25:25.188Z,0.00
2018-05-04T01:26:25.170Z,0.00
2018-05-04T01:27:25.152Z,0.00
2018-05-04T01:28:25.139Z,0.00
2018-05-04T01:29:25.122Z,0.00
2018-05-04T01:30:25.095Z,0.00
2018-05-04T01:31:25.077Z,0.00
2018-05-04T01:32:25.063Z,0.00
2018-05-04T01:33:25.043Z,0.00
2018-05-04T01:34:25.023Z,0.00
2018-05-04T01:35:25.003Z,0.00
2018-05-04T01:36:24.987Z,0.00
2018-05-04T01:37:24.978Z,0.00
2018-05-04T01:38:24.957Z,0.00
2018-05-04T01:39:24.958Z,0.00
2018-05-04T01:40:24.917Z,0.00
2018-05-04T01:41:24.898Z,0.00
2018-05-04T01:42:24.877Z,0.00
2018-05-04T01:43:24.859Z,0.00
2018-05-04T01:44:24.846Z,0.00
2018-05-04T01:45:24.828Z,0.00
2018-05-04T01:46:24.803Z,0.00
2018-05-04T01:47:24.788Z,0.00
2018-05-04T01:48:24.770Z,0.00
2018-05-04T01:49:24.751Z,0.00
2018-05-04T01:50:24.735Z,0.00
2018-05-04T01:51:24.714Z,0.00
2018-05-04T01:52:24.697Z,0.00
2018-05-04T01:53:24.685Z,0.00
2018-05-04T01:54:24.657Z,0.00
2018-05-04T01:55:24.646Z,0.00
2018-05-04T01:56:24.633Z,0.00
2018-05-04T01:57:24.613Z,0.00
2018-05-04T01:58:24.588Z,0.00
2018-05-04T01:59:24.565Z,0.00
2018-05-04T02:00:24.549Z,0.00
2018-05-04T02:01:24.531Z,0.00
2018-05-04T02:02:24.518Z,0.00
2018-05-04T02:03:24.497Z,0.00
2018-05-04T02:04:24.475Z,0.00
2018-05-04T02:05:24.461Z,0.00
2018-05-04T02:06:24.439Z,0.00
2018-05-04T02:07:24.429Z,0.00
2018-05-04T02:08:24.406Z,0.00
2018-05-04T02:09:24.409Z,0.00
2018-05-04T02:10:24.365Z,0.00
2018-05-04T02:11:24.349Z,0.00
2018-05-04T02:12:24.328Z,0.00
2018-05-04T02:13:24.315Z,0.00
2018-05-04T02:14:24.293Z,0.00
2018-05-04T02:15:24.283Z,0.00
2018-05-04T02:16:24.254Z,0.00
2018-05-04T02:17:24.237Z,0.00
2018-05-04T02:18:24.217Z,0.00
2018-05-04T02:19:24.207Z,0.00
2018-05-04T02:20:24.179Z,0.00
2018-05-04T02:21:24.170Z,0.00
2018-05-04T02:22:24.144Z,0.00
2018-05-04T02:23:24.128Z,0.00
2018-05-04T02:24:24.111Z,0.00
2018-05-04T02:25:24.089Z,0.00
2018-05-04T02:26:24.071Z,0.00
2018-05-04T02:27:24.053Z,0.00
2018-05-04T02:28:24.041Z,0.00
2018-05-04T02:29:24.016Z,0.00
2018-05-04T02:30:24.002Z,0.00
2018-05-04T02:31:23.976Z,0.00
2018-05-04T02:32:23.961Z,0.00
2018-05-04T02:33:23.945Z,0.00
2018-05-04T02:34:23.927Z,0.00
2018-05-04T02:35:23.914Z,0.00
2018-05-04T02:36:23.892Z,0.00
2018-05-04T02:37:23.882Z,0.00
2018-05-04T02:38:23.851Z,0.00
2018-05-04T02:39:23.838Z,0.00
2018-05-04T02:40:23.814Z,0.00
2018-05-04T02:41:23.795Z,0.00
2018-05-04T02:42:23.786Z,0.00
2018-05-04T02:43:23.760Z,0.00
2018-05-04T02:44:23.739Z,0.00
2018-05-04T02:45:23.724Z,0.00
2018-05-04T02:46:23.702Z,0.00
2018-05-04T02:47:23.686Z,0.00
2018-05-04T02:48:23.681Z,0.00
2018-05-04T02:49:23.648Z,0.00
2018-05-04T02:50:23.633Z,0.00
2018-05-04T02:51:23.617Z,0.00
2018-05-04T02:52:23.593Z,0.00
2018-05-04T02:53:23.574Z,0.00
2018-05-04T02:54:23.561Z,0.00
2018-05-04T02:55:23.565Z,0.00
2018-05-04T02:56:23.529Z,0.00
2018-05-04T02:57:23.500Z,0.00
2018-05-04T02:58:23.488Z,0.00
2018-05-04T02:59:23.467Z,0.00
2018-05-04T03:00:23.449Z,0.00
2018-05-04T03:01:23.427Z,0.00
2018-05-04T03:02:23.408Z,0.00
2018-05-04T03:03:23.389Z,0.00
2018-05-04T03:04:23.373Z,0.00
2018-05-04T03:05:23.364Z,0.00
2018-05-04T03:06:23.338Z,0.00
2018-05-04T03:07:23.324Z,0.00
2018-05-04T03:08:23.297Z,0.00
2018-05-04T03:09:23.278Z,0.00
2018-05-04T03:10:23.260Z,0.00
2018-05-04T03:11:23.243Z,0.00
2018-05-04T03:12:23.224Z,0.00
2018-05-04T03:13:23.210Z,0.00
2018-05-04T03:14:23.183Z,0.00
2018-05-04T03:15:23.169Z,0.00
2018-05-04T03:16:23.152Z,0.00
2018-05-04T03:17:23.129Z,0.00
2018-05-04T03:18:23.111Z,0.00
2018-05-04T03:19:23.092Z,0.00
2018-05-04T03:20:23.079Z,0.00
2018-05-04T03:21:23.055Z,0.00
2018-05-04T03:22:23.039Z,0.00
2018-05-04T03:23:23.019Z,0.00
2018-05-04T03:24:22.999Z,0.00
2018-05-04T03:25:22.980Z,0.00
2018-05-04T03:26:22.965Z,0.00
2018-05-04T03:27:22.943Z,0.00
2018-05-04T03:28:22.926Z,0.00
2018-05-04T03:29:22.905Z,0.00
2018-05-04T03:30:22.886Z,0.00
2018-05-04T03:31:22.868Z,0.00
2018-05-04T03:32:22.852Z,0.00
2018-05-04T03:33:22.830Z,0.00
2018-05-04T03:34:22.819Z,0.00
2018-05-04T03:35:22.792Z,0.00
2018-05-04T03:36:22.776Z,0.00
2018-05-04T03:37:22.764Z,0.00
2018-05-04T03:38:22.736Z,0.00
2018-05-04T03:39:22.719Z,0.00
2018-05-04T03:40:22.697Z,0.00
2018-05-04T03:41:22.679Z,0.00
2018-05-04T03:42:22.658Z,0.00
2018-05-04T03:43:22.641Z,0.00
2018-05-04T03:44:22.622Z,0.00
2018-05-04T03:45:22.609Z,0.00
2018-05-04T03:46:22.585Z,0.00
2018-05-04T03:47:22.565Z,0.00
2018-05-04T03:48:22.548Z,0.00
2018-05-04T03:49:22.529Z,0.00
2018-05-04T03:50:22.517Z,0.00
2018-05-04T03:51:22.499Z,0.00
2018-05-04T03:52:22.475Z,0.00
2018-05-04T03:53:22.455Z,0.00
2018-05-04T03:54:22.433Z,0.00
2018-05-04T03:55:22.422Z,0.00
2018-05-04T03:56:22.409Z,0.00
2018-05-04T03:57:22.381Z,0.00
2018-05-04T03:58:22.358Z,0.00
2018-05-04T03:59:22.339Z,0.00
2018-05-04T04:00:22.329Z,0.00
2018-05-04T04:01:22.302Z,0.00
2018-05-04T04:02:22.354Z,0.00
2018-05-04T04:03:22.267Z,0.00
2018-05-04T04:04:22.248Z,0.00
2018-05-04T04:05:22.229Z,0.00
2018-05-04T04:06:22.207Z,0.00
2018-05-04T04:07:22.189Z,0.00
2018-05-04T04:08:22.174Z,0.00
2018-05-04T04:09:22.150Z,0.00
2018-05-04T04:10:22.139Z,0.00
2018-05-04T04:11:22.116Z,0.00
2018-05-04T04:12:22.097Z,0.00
2018-05-04T04:13:22.083Z,0.00
2018-05-04T04:14:22.057Z,0.00
2018-05-04T04:15:22.039Z,0.00
2018-05-04T04:16:22.017Z,0.00
2018-05-04T04:17:22.002Z,0.00
2018-05-04T04:18:21.979Z,0.00
2018-05-04T04:19:21.963Z,0.00
2018-05-04T04:20:21.947Z,0.00
2018-05-04T04:21:21.942Z,0.00
2018-05-04T04:22:21.904Z,0.00
2018-05-04T04:23:21.888Z,0.00
2018-05-04T04:24:21.877Z,0.00
2018-05-04T04:25:21.850Z,0.00
2018-05-04T04:26:21.827Z,0.00
2018-05-04T04:27:21.808Z,0.00
2018-05-04T04:28:21.793Z,0.00
2018-05-04T04:29:21.773Z,0.00
2018-05-04T04:30:21.759Z,0.00
2018-05-04T04:31:21.735Z,0.00
2018-05-04T04:32:21.714Z,0.00
2018-05-04T04:33:21.703Z,0.00
2018-05-04T04:34:21.681Z,0.00
2018-05-04T04:35:21.659Z,0.00
2018-05-04T04:36:21.637Z,0.00
2018-05-04T04:37:21.625Z,0.00
2018-05-04T04:38:21.597Z,0.00
2018-05-04T04:39:21.591Z,0.00
2018-05-04T04:40:21.572Z,0.00
2018-05-04T04:41:21.546Z,0.00
2018-05-04T04:42:21.529Z,0.00
2018-05-04T04:43:21.503Z,0.00
2018-05-04T04:44:21.488Z,0.00
2018-05-04T04:45:21.470Z,0.00
2018-05-04T04:46:21.448Z,0.00
2018-05-04T04:47:21.429Z,0.00
2018-05-04T04:48:21.409Z,0.00
2018-05-04T04:49:21.398Z,0.00
2018-05-04T04:50:21.376Z,0.00
2018-05-04T04:51:21.359Z,0.00
2018-05-04T04:52:21.338Z,0.00
2018-05-04T04:53:21.315Z,0.00
2018-05-04T04:54:21.299Z,0.00
2018-05-04T04:55:21.280Z,0.00
2018-05-04T04:56:21.260Z,0.00
2018-05-04T04:57:21.240Z,0.00
2018-05-04T04:58:21.224Z,0.00
2018-05-04T04:59:21.204Z,0.00
2018-05-04T05:00:21.187Z,0.00
2018-05-04T05:01:21.167Z,0.00
2018-05-04T05:02:21.145Z,5.63
2018-05-04T05:03:21.127Z,5.63
2018-05-04T05:04:21.108Z,5.63
2018-05-04T05:05:21.089Z,5.63
2018-05-04T05:06:21.069Z,5.63
2018-05-04T05:07:21.050Z,5.63
2018-05-04T05:08:21.041Z,5.63
2018-05-04T05:09:21.011Z,5.63
2018-05-04T05:10:21.002Z,5.63
2018-05-04T05:11:20.985Z,5.63
2018-05-04T05:12:20.957Z,5.63
2018-05-04T05:13:20.936Z,5.63
2018-05-04T05:14:20.915Z,5.63
2018-05-04T05:15:20.899Z,5.63
2018-05-04T05:16:20.879Z,5.63
2018-05-04T05:17:20.861Z,5.63
2018-05-04T05:18:20.839Z,5.63
2018-05-04T05:19:20.825Z,5.63
2018-05-04T05:20:20.810Z,5.63
2018-05-04T05:21:20.785Z,5.63
2018-05-04T05:22:20.768Z,5.63
2018-05-04T05:23:20.752Z,5.63
2018-05-04T05:24:20.729Z,5.63
2018-05-04T05:25:20.712Z,5.63
2018-05-04T05:26:20.690Z,5.63
2018-05-04T05:27:20.669Z,5.63
2018-05-04T05:28:20.657Z,5.63
2018-05-04T05:29:20.638Z,5.63
2018-05-04T05:30:20.620Z,5.63
2018-05-04T05:31:20.603Z,5.63
2018-05-04T05:32:20.585Z,5.63
2018-05-04T05:33:20.558Z,5.63
2018-05-04T05:34:20.541Z,5.63
2018-05-04T05:35:20.524Z,5.63
2018-05-04T05:36:20.509Z,5.63
2018-05-04T05:37:20.482Z,5.63
2018-05-04T05:38:20.468Z,5.63
2018-05-04T05:39:20.444Z,5.63
2018-05-04T05:40:20.428Z,5.63
2018-05-04T05:41:20.407Z,5.63
2018-05-04T05:42:20.420Z,5.63
2018-05-04T05:43:20.369Z,5.63
2018-05-04T05:44:20.348Z,5.63
2018-05-04T05:45:20.334Z,5.63
2018-05-04T05:46:20.314Z,5.63
2018-05-04T05:47:20.295Z,5.63
2018-05-04T05:48:20.280Z,5.63
2018-05-04T05:49:20.256Z,5.63
2018-05-04T05:50:20.239Z,5.63
2018-05-04T05:51:20.220Z,5.63
2018-05-04T05:52:20.198Z,5.63
2018-05-04T05:53:20.183Z,5.63
2018-05-04T05:54:20.164Z,5.63
2018-05-04T05:55:20.144Z,5.63
2018-05-04T05:56:20.129Z,5.63
2018-05-04T05:57:20.106Z,5.63
2018-05-04T05:58:20.088Z,5.63
2018-05-04T05:59:20.069Z,5.63
2018-05-04T06:00:20.049Z,5.63
2018-05-04T06:01:20.033Z,11.25
2018-05-04T06:02:20.012Z,11.25
2018-05-04T06:03:19.994Z,11.25
2018-05-04T06:04:19.980Z,11.25
2018-05-04T06:05:19.962Z,11.25
2018-05-04T06:06:19.946Z,11.25
2018-05-04T06:07:19.919Z,11.25
2018-05-04T06:08:19.919Z,11.25
2018-05-04T06:09:19.898Z,11.25
2018-05-04T06:10:19.863Z,11.25
2018-05-04T06:11:19.843Z,11.25
2018-05-04T06:12:19.899Z,11.25
2018-05-04T06:13:19.808Z,11.25
2018-05-04T06:14:19.789Z,11.25
2018-05-04T06:15:19.768Z,11.25
2018-05-04T06:16:19.757Z,11.25
2018-05-04T06:17:19.733Z,11.25
2018-05-04T06:18:19.718Z,11.25
2018-05-04T06:19:19.695Z,11.25
2018-05-04T06:20:19.673Z,11.25
2018-05-04T06:21:19.655Z,11.25
2018-05-04T06:22:19.638Z,11.25
2018-05-04T06:23:19.619Z,11.25
2018-05-04T06:24:19.600Z,11.25
2018-05-04T06:25:19.579Z,11.25
2018-05-04T06:26:19.565Z,11.25
2018-05-04T06:27:19.547Z,11.25
2018-05-04T06:28:19.537Z,11.25
2018-05-04T06:29:19.509Z,11.25
2018-05-04T06:30:19.489Z,11.25
2018-05-04T06:31:19.471Z,11.25
2018-05-04T06:32:19.451Z,11.25
2018-05-04T06:33:19.440Z,11.25
2018-05-04T06:34:19.410Z,11.25
2018-05-04T06:35:19.400Z,11.25
2018-05-04T06:36:19.377Z,11.25
2018-05-04T06:37:19.354Z,11.25
2018-05-04T06:38:19.338Z,11.25
2018-05-04T06:39:19.319Z,16.88
2018-05-04T06:40:19.299Z,16.88
2018-05-04T06:41:19.281Z,16.88
2018-05-04T06:42:19.271Z,16.88
2018-05-04T06:43:19.247Z,16.88
2018-05-04T06:44:19.225Z,16.88
2018-05-04T06:45:19.209Z,16.88
2018-05-04T06:46:19.190Z,16.88
2018-05-04T06:47:19.172Z,16.88
2018-05-04T06:48:19.152Z,16.88
2018-05-04T06:49:19.132Z,16.88
2018-05-04T06:50:19.117Z,16.88
2018-05-04T06:51:19.106Z,16.88
2018-05-04T06:52:19.076Z,16.88
2018-05-04T06:53:19.134Z,16.88
2018-05-04T06:54:19.040Z,16.88
2018-05-04T06:55:19.024Z,16.88
2018-05-04T06:56:19.013Z,22.50
2018-05-04T06:57:18.982Z,22.50
2018-05-04T06:58:18.966Z,22.50
2018-05-04T06:59:18.994Z,22.50
2018-05-04T07:00:18.926Z,16.88
2018-05-04T07:01:18.908Z,16.88
2018-05-04T07:02:18.897Z,16.88
2018-05-04T07:03:18.873Z,16.88
2018-05-04T07:04:18.862Z,16.88
2018-05-04T07:05:18.843Z,22.50
2018-05-04T07:06:18.826Z,22.50
2018-05-04T07:07:18.797Z,22.50
2018-05-04T07:08:18.785Z,22.50
2018-05-04T07:09:18.771Z,22.50
2018-05-04T07:10:18.811Z,22.50
2018-05-04T07:11:18.734Z,22.50
2018-05-04T07:12:18.710Z,22.50
2018-05-04T07:13:18.689Z,22.50
2018-05-04T07:14:18.670Z,28.13
2018-05-04T07:15:18.654Z,28.13
2018-05-04T07:16:18.634Z,28.13
2018-05-04T07:17:18.624Z,28.13
2018-05-04T07:18:18.597Z,28.13
2018-05-04T07:19:18.580Z,28.13
2018-05-04T07:20:18.559Z,28.13
2018-05-04T07:21:18.550Z,33.75
2018-05-04T07:22:18.527Z,33.75
2018-05-04T07:23:18.509Z,33.75
2018-05-04T07:24:18.485Z,33.75
2018-05-04T07:25:18.470Z,33.75
2018-05-04T07:26:18.468Z,33.75
2018-05-04T07:27:18.434Z,33.75
2018-05-04T07:28:18.414Z,33.75
2018-05-04T07:29:18.405Z,33.75
2018-05-04T07:30:18.381Z,33.75
2018-05-04T07:31:18.359Z,39.38
2018-05-04T07:32:18.342Z,39.38
2018-05-04T07:33:18.334Z,39.38
2018-05-04T07:34:18.303Z,39.38
2018-05-04T07:35:18.287Z,39.38
2018-05-04T07:36:18.280Z,39.38
2018-05-04T07:37:18.250Z,45.00
2018-05-04T07:38:18.233Z,45.00
2018-05-04T07:39:18.217Z,45.00
2018-05-04T07:40:18.200Z,45.00
2018-05-04T07:41:18.180Z,45.00
2018-05-04T07:42:18.166Z,50.63
2018-05-04T07:43:18.145Z,50.63
2018-05-04T07:44:18.130Z,50.63
2018-05-04T07:45:18.110Z,50.63
2018-05-04T07:46:18.090Z,50.63
2018-05-04T07:47:18.074Z,50.63
2018-05-04T07:48:18.059Z,56.25
2018-05-04T07:49:18.040Z,56.25
2018-05-04T07:50:18.018Z,56.25
2018-05-04T07:51:18.005Z,50.63
2018-05-04T07:52:17.988Z,50.63
2018-05-04T07:53:17.966Z,50.63
2018-05-04T07:54:17.947Z,50.63
2018-05-04T07:55:18.024Z,56.25
2018-05-04T07:56:17.922Z,56.25
2018-05-04T07:57:17.900Z,61.88
2018-05-04T07:58:17.879Z,56.25
2018-05-04T07:59:17.869Z,56.25
2018-05-04T08:00:17.844Z,56.25
2018-05-04T08:01:17.828Z,56.25
2018-05-04T08:02:17.811Z,61.88
2018-05-04T08:03:17.790Z,61.88
2018-05-04T08:04:17.790Z,61.88
2018-05-04T08:05:17.758Z,61.88
2018-05-04T08:06:17.744Z,61.88
2018-05-04T08:07:17.720Z,61.88
2018-05-04T08:08:17.711Z,61.88
2018-05-04T08:09:17.685Z,67.50
2018-05-04T08:10:17.670Z,67.50
2018-05-04T08:11:17.656Z,67.50
2018-05-04T08:12:17.636Z,67.50
2018-05-04T08:13:17.623Z,67.50
2018-05-04T08:14:17.605Z,67.50
2018-05-04T08:15:17.586Z,67.50
2018-05-04T08:16:17.581Z,67.50
2018-05-04T08:17:17.549Z,67.50
2018-05-04T08:18:17.540Z,67.50
2018-05-04T08:19:17.523Z,67.50
2018-05-04T08:20:17.499Z,67.50
2018-05-04T08:21:17.484Z,67.50
2018-05-04T08:22:17.469Z,67.50
2018-05-04T08:23:17.449Z,67.50
2018-05-04T08:24:17.429Z,67.50
2018-05-04T08:25:17.418Z,67.50
2018-05-04T08:26:17.401Z,67.50
2018-05-04T08:27:17.412Z,67.50
2018-05-04T08:28:17.365Z,67.50
2018-05-04T08:29:17.351Z,67.50
2018-05-04T08:30:17.329Z,67.50
2018-05-04T08:31:17.316Z,67.50
2018-05-04T08:32:17.301Z,67.50
2018-05-04T08:33:17.282Z,67.50
2018-05-04T08:34:17.263Z,67.50
2018-05-04T08:35:17.356Z,67.50
2018-05-04T08:36:17.233Z,67.50
2018-05-04T08:37:17.215Z,67.50
2018-05-04T08:38:17.203Z,67.50
2018-05-04T08:39:17.180Z,67.50
2018-05-04T08:40:17.167Z,67.50
2018-05-04T08:41:17.149Z,67.50
2018-05-04T08:42:17.129Z,67.50
2018-05-04T08:43:17.210Z,67.50
2018-05-04T08:44:17.103Z,73.13
2018-05-04T08:45:17.088Z,73.13
2018-05-04T08:46:17.063Z,73.13
2018-05-04T08:47:17.051Z,73.13
2018-05-04T08:48:17.074Z,73.13
2018-05-04T08:49:17.016Z,73.13
2018-05-04T08:50:17.001Z,73.13
2018-05-04T08:51:16.984Z,73.13
2018-05-04T08:52:16.968Z,73.13
2018-05-04T08:53:16.963Z,73.13
2018-05-04T08:54:17.017Z,73.13
2018-05-04T08:55:16.920Z,73.13
2018-05-04T08:56:16.908Z,73.13
2018-05-04T08:57:16.906Z,73.13
2018-05-04T08:58:16.869Z,73.13
2018-05-04T08:59:16.854Z,73.13
2018-05-04T09:00:16.878Z,73.13
2018-05-04T09:01:16.827Z,73.13
2018-05-04T09:02:16.807Z,73.13
2018-05-04T09:03:16.793Z,73.13
2018-05-04T09:04:16.771Z,73.13
2018-05-04T09:05:16.881Z,73.13
2018-05-04T09:06:16.744Z,73.13
2018-05-04T09:07:16.729Z,73.13
2018-05-04T09:08:16.715Z,73.13
2018-05-04T09:09:16.700Z,73.13
2018-05-04T09:10:16.677Z,73.13
2018-05-04T09:11:16.665Z,73.13
2018-05-04T09:12:16.645Z,73.13
2018-05-04T09:13:16.632Z,73.13
2018-05-04T09:14:16.613Z,73.13
2018-05-04T09:15:16.601Z,78.75
2018-05-04T09:16:16.584Z,78.75
2018-05-04T09:17:16.569Z,73.13
2018-05-04T09:18:16.553Z,73.13
2018-05-04T09:19:16.536Z,73.13
2018-05-04T09:20:16.518Z,78.75
2018-05-04T09:21:16.504Z,78.75
2018-05-04T09:22:16.497Z,78.75
2018-05-04T09:23:16.472Z,78.75
2018-05-04T09:24:16.458Z,78.75
2018-05-04T09:25:16.466Z,78.75
2018-05-04T09:26:16.426Z,78.75
2018-05-04T09:27:16.411Z,78.75
2018-05-04T09:28:16.396Z,78.75
2018-05-04T09:29:16.380Z,78.75
2018-05-04T09:30:16.363Z,78.75
2018-05-04T09:31:16.357Z,78.75
2018-05-04T09:32:16.338Z,78.75
2018-05-04T09:33:16.321Z,78.75
2018-05-04T09:34:16.312Z,78.75
2018-05-04T09:35:16.286Z,78.75
2018-05-04T09:36:16.272Z,78.75
2018-05-04T09:37:16.267Z,78.75
2018-05-04T09:38:16.242Z,78.75
2018-05-04T09:39:16.226Z,78.75
2018-05-04T09:40:16.210Z,78.75
2018-05-04T09:41:16.190Z,78.75
2018-05-04T09:42:16.183Z,78.75
2018-05-04T09:43:16.160Z,78.75
2018-05-04T09:44:16.148Z,78.75
2018-05-04T09:45:16.133Z,78.75
2018-05-04T09:46:16.121Z,78.75
2018-05-04T09:47:16.229Z,78.75
2018-05-04T09:48:16.087Z,78.75
2018-05-04T09:49:16.065Z,78.75
2018-05-04T09:50:16.055Z,78.75
2018-05-04T09:51:16.039Z,78.75
2018-05-04T09:52:16.022Z,78.75
2018-05-04T09:53:16.013Z,78.75
2018-05-04T09:54:15.991Z,78.75
2018-05-04T09:55:15.975Z,78.75
2018-05-04T09:56:15.960Z,78.75
2018-05-04T09:57:15.951Z,78.75
2018-05-04T09:58:15.928Z,78.75
2018-05-04T09:59:15.914Z,78.75
2018-05-04T10:00:15.902Z,78.75
2018-05-04T10:01:15.894Z,78.75
2018-05-04T10:02:15.870Z,78.75
2018-05-04T10:03:15.854Z,78.75
2018-05-04T10:04:15.850Z,78.75
2018-05-04T10:05:15.835Z,78.75
2018-05-04T10:06:15.812Z,78.75
2018-05-04T10:07:15.790Z,78.75
2018-05-04T10:08:15.780Z,78.75
2018-05-04T10:09:15.825Z,78.75
2018-05-04T10:10:15.744Z,78.75
2018-05-04T10:11:15.731Z,78.75
2018-05-04T10:12:15.715Z,78.75
2018-05-04T10:13:15.700Z,78.75
2018-05-04T10:14:15.684Z,78.75
2018-05-04T10:15:15.673Z,78.75
2018-05-04T10:16:15.659Z,78.75
2018-05-04T10:17:15.642Z,78.75
2018-05-04T10:18:15.631Z,78.75
2018-05-04T10:19:15.610Z,78.75
2018-05-04T10:20:15.605Z,78.75
2018-05-04T10:21:15.580Z,78.75
2018-05-04T10:22:15.561Z,67.50
2018-05-04T10:23:15.550Z,73.13
2018-05-04T10:24:15.530Z,78.75
2018-05-04T10:25:15.519Z,73.13
2018-05-04T10:26:15.501Z,78.75
2018-05-04T10:27:15.495Z,78.75
2018-05-04T10:28:15.470Z,78.75
2018-05-04T10:29:15.454Z,78.75
2018-05-04T10:30:15.443Z,78.75
2018-05-04T10:31:15.431Z,73.13
2018-05-04T10:32:15.413Z,73.13
2018-05-04T10:33:15.393Z,73.13
2018-05-04T10:34:15.384Z,78.75
2018-05-04T10:35:15.372Z,78.75
2018-05-04T10:36:15.350Z,78.75
2018-05-04T10:37:15.330Z,78.75
2018-05-04T10:38:15.399Z,78.75
2018-05-04T10:39:15.304Z,78.75
2018-05-04T10:40:15.295Z,78.75
2018-05-04T10:41:15.292Z,78.75
2018-05-04T10:42:15.258Z,78.75
2018-05-04T10:43:15.241Z,78.75
2018-05-04T10:44:15.225Z,78.75
2018-05-04T10:45:15.261Z,78.75
2018-05-04T10:46:15.196Z,78.75
2018-05-04T10:47:15.182Z,78.75
2018-05-04T10:48:15.164Z,78.75
2018-05-04T10:49:15.160Z,78.75
2018-05-04T10:50:15.143Z,73.13
2018-05-04T10:51:15.121Z,67.50
2018-05-04T10:52:15.109Z,67.50
2018-05-04T10:53:15.097Z,73.13
2018-05-04T10:54:15.071Z,67.50
2018-05-04T10:55:15.063Z,67.50
2018-05-04T10:56:15.041Z,73.13
2018-05-04T10:57:15.109Z,73.13
2018-05-04T10:58:15.011Z,73.13
2018-05-04T10:59:15.000Z,78.75
2018-05-04T11:00:14.980Z,78.75
2018-05-04T11:01:14.976Z,78.75
2018-05-04T11:02:14.949Z,78.75
2018-05-04T11:03:14.938Z,78.75
2018-05-04T11:04:14.924Z,78.75
2018-05-04T11:05:14.911Z,78.75
2018-05-04T11:06:14.896Z,78.75
2018-05-04T11:07:14.880Z,78.75
2018-05-04T11:08:14.861Z,78.75
2018-05-04T11:09:14.849Z,78.75
2018-05-04T11:10:14.844Z,78.75
2018-05-04T11:11:14.819Z,78.75
2018-05-04T11:12:14.808Z,78.75
2018-05-04T11:13:14.789Z,78.75
2018-05-04T11:14:14.771Z,78.75
2018-05-04T11:15:14.763Z,78.75
2018-05-04T11:16:14.748Z,90.00
2018-05-04T11:17:14.732Z,78.75
2018-05-04T11:18:14.717Z,78.75
2018-05-04T11:19:14.698Z,78.75
2018-05-04T11:20:14.689Z,78.75
2018-05-04T11:21:14.670Z,78.75
2018-05-04T11:22:14.668Z,78.75
2018-05-04T11:23:14.641Z,78.75
2018-05-04T11:24:14.628Z,78.75
2018-05-04T11:25:14.612Z,78.75
2018-05-04T11:26:14.599Z,78.75
2018-05-04T11:27:14.580Z,78.75
2018-05-04T11:28:14.570Z,78.75
2018-05-04T11:29:14.553Z,78.75
2018-05-04T11:30:14.540Z,78.75
2018-05-04T11:31:14.524Z,73.13
2018-05-04T11:32:14.511Z,73.13
2018-05-04T11:33:14.494Z,73.13
2018-05-04T11:34:14.486Z,73.13
2018-05-04T11:35:14.475Z,78.75
2018-05-04T11:36:14.449Z,78.75
2018-05-04T11:37:14.438Z,78.75
2018-05-04T11:38:14.422Z,78.75
2018-05-04T11:39:14.411Z,78.75
2018-05-04T11:40:14.395Z,78.75
2018-05-04T11:41:14.379Z,78.75
2018-05-04T11:42:14.368Z,78.75
2018-05-04T11:43:14.353Z,78.75
2018-05-04T11:44:14.349Z,78.75
2018-05-04T11:45:14.328Z,78.75
2018-05-04T11:46:14.305Z,78.75
2018-05-04T11:47:14.291Z,78.75
2018-05-04T11:48:14.279Z,78.75
2018-05-04T11:49:14.268Z,78.75
2018-05-04T11:50:14.245Z,78.75
2018-05-04T11:51:14.244Z,78.75
2018-05-04T11:52:14.219Z,78.75
2018-05-04T11:53:14.222Z,78.75
2018-05-04T11:54:14.199Z,78.75
2018-05-04T11:55:14.219Z,78.75
2018-05-04T11:56:14.159Z,78.75
2018-05-04T11:57:14.156Z,78.75
2018-05-04T11:58:14.140Z,78.75
2018-05-04T11:59:14.119Z,78.75
2018-05-04T12:00:14.120Z,78.75
2018-05-04T12:01:14.095Z,78.75
2018-05-04T12:02:14.075Z,78.75
2018-05-04T12:03:14.062Z,78.75
2018-05-04T12:04:14.052Z,78.75
2018-05-04T12:05:14.034Z,78.75
2018-05-04T12:06:14.023Z,78.75
2018-05-04T12:07:14.003Z,78.75
2018-05-04T12:08:13.994Z,78.75
2018-05-04T12:09:13.974Z,78.75
2018-05-04T12:10:13.960Z,78.75
2018-05-04T12:11:13.946Z,78.75
2018-05-04T12:12:13.937Z,78.75
2018-05-04T12:13:13.916Z,78.75
2018-05-04T12:14:13.901Z,78.75
2018-05-04T12:15:13.886Z,78.75
2018-05-04T12:16:13.883Z,78.75
2018-05-04T12:17:13.857Z,78.75
2018-05-04T12:18:13.853Z,78.75
2018-05-04T12:19:13.832Z,78.75
2018-05-04T12:20:13.821Z,78.75
2018-05-04T12:21:13.800Z,78.75
2018-05-04T12:22:13.793Z,78.75
2018-05-04T12:23:13.770Z,78.75
2018-05-04T12:24:13.759Z,78.75
2018-05-04T12:25:13.739Z,78.75
2018-05-04T12:26:13.725Z,78.75
2018-05-04T12:27:13.714Z,78.75
2018-05-04T12:28:13.698Z,78.75
2018-05-04T12:29:13.684Z,78.75
2018-05-04T12:30:13.667Z,78.75
2018-05-04T12:31:13.650Z,78.75
2018-05-04T12:32:13.644Z,78.75
2018-05-04T12:33:13.629Z,78.75
2018-05-04T12:34:13.611Z,78.75
2018-05-04T12:35:13.597Z,78.75
2018-05-04T12:36:13.578Z,78.75
2018-05-04T12:37:13.584Z,78.75
2018-05-04T12:38:13.557Z,78.75
2018-05-04T12:39:13.555Z,78.75
2018-05-04T12:40:13.530Z,73.13
2018-05-04T12:41:13.523Z,73.13
2018-05-04T12:42:13.492Z,78.75
2018-05-04T12:43:13.480Z,78.75
2018-05-04T12:44:13.470Z,78.75
2018-05-04T12:45:13.455Z,78.75
2018-05-04T12:46:13.439Z,78.75
2018-05-04T12:47:13.432Z,78.75
2018-05-04T12:48:13.407Z,78.75
2018-05-04T12:49:13.398Z,73.13
2018-05-04T12:50:13.375Z,73.13
2018-05-04T12:51:13.369Z,73.13
2018-05-04T12:52:13.350Z,73.13
2018-05-04T12:53:13.336Z,73.13
2018-05-04T12:54:13.318Z,73.13
2018-05-04T12:55:13.316Z,73.13
2018-05-04T12:56:13.300Z,73.13
2018-05-04T12:57:13.288Z,73.13
2018-05-04T12:58:13.263Z,73.13
2018-05-04T12:59:13.251Z,73.13
2018-05-04T13:00:13.233Z,73.13
2018-05-04T13:01:13.224Z,73.13
2018-05-04T13:02:13.209Z,73.13
2018-05-04T13:03:13.189Z,73.13
2018-05-04T13:04:13.178Z,73.13